images/hfc/images/print_logo.png
Drucken
[Quelle: ADDS]
METAR
EDDW 210520Z 24007KT 9999 FEW012 16/15 Q1015 NOSIG =
TAF
EDDW 202300Z 2100/2124 21006KT 9999 SCT040 TEMPO 2100/2105 3500 BR BECMG 2105/2107 27012KT PROB30 TEMPO 2111/2116 29015G25KT BECMG 2117/2119 31007KT BECMG 2119/2121 VRB03KT =
BCMT / ECET: 02:33 / 20:29 UTC (EDDW 2019-07-21)

printlogo=no